Time;durP1;ratioP1;P1;durP2;ratioP2;P2;SDS_P1;SDS_P2;PMS_P1;PMS_P2;Temp;Humidity;BMP_temperature;BMP_pressure;BME280_temperature;BME280_humidity;BME280_pressure;Samples;Min_cycle;Max_cycle;Signal;HPM_P1;HPM_P2
2021/11/12 00:13:43;;;;;;;18.80;7.53;;;;;;;;;;5117521;28;20042;-65
2021/11/12 00:16:10;;;;;;;14.57;6.78;;;;;;;;;;5134563;28;20030;-66
2021/11/12 00:18:37;;;;;;;20.40;7.43;;;;;;;;;;5133884;28;20027;-65
2021/11/12 00:21:04;;;;;;;13.75;6.63;;;;;;;;;;5116548;28;20122;-65
2021/11/12 00:23:32;;;;;;;18.17;7.07;;;;;;;;;;5135251;28;20104;-65
2021/11/12 00:25:59;;;;;;;16.48;7.35;;;;;;;;;;5117136;28;20019;-66
2021/11/12 00:28:29;;;;;;;14.00;7.10;;;;;;;;;;5134656;28;20370;-65
2021/11/12 00:31:10;;;;;;;14.55;6.85;;;;;;;;;;5134281;28;20016;-66
2021/11/12 00:36:25;;;;;;;12.00;6.47;;;;;;;;;;5133789;28;20057;-65
2021/11/12 00:43:51;;;;;;;19.67;6.97;;;;;;;;;;5136760;27;20058;-65
2021/11/12 00:46:35;;;;;;;30.38;9.75;;;;;;;;;;5137685;27;20022;-65
2021/11/12 00:49:06;;;;;;;14.93;6.95;;;;;;;;;;5137641;27;20098;-66
2021/11/12 00:52:08;;;;;;;16.38;6.65;;;;;;;;;;5119234;27;20024;-66
2021/11/12 00:54:24;;;;;;;11.80;5.93;;;;;;;;;;5135291;27;20467;-66
2021/11/12 00:56:51;;;;;;;12.43;6.18;;;;;;;;;;5136165;27;20035;-66
2021/11/12 00:59:18;;;;;;;14.75;6.78;;;;;;;;;;5137646;27;20027;-65
2021/11/12 01:01:45;;;;;;;15.38;6.15;;;;;;;;;;5155168;27;20141;-65
2021/11/12 01:04:12;;;;;;;14.88;6.63;;;;;;;;;;5158653;27;20026;-65
2021/11/12 01:06:39;;;;;;;14.70;6.68;;;;;;;;;;5140755;27;20110;-66
2021/11/12 01:09:06;;;;;;;20.63;7.32;;;;;;;;;;5159211;27;20019;-65
2021/11/12 01:11:32;;;;;;;9.20;5.90;;;;;;;;;;5159196;27;20023;-65
2021/11/12 01:13:59;;;;;;;10.80;5.80;;;;;;;;;;5158659;27;20044;-65
2021/11/12 01:16:26;;;;;;;9.60;5.90;;;;;;;;;;5141731;27;20374;-66
2021/11/12 01:18:52;;;;;;;11.88;6.25;;;;;;;;;;5137062;27;20054;-65
2021/11/12 01:21:19;;;;;;;11.50;6.22;;;;;;;;;;5137469;27;20505;-65
2021/11/12 01:23:46;;;;;;;10.73;5.88;;;;;;;;;;5119343;27;20035;-65
2021/11/12 01:26:14;;;;;;;9.05;5.88;;;;;;;;;;5135676;27;20037;-65
2021/11/12 01:28:41;;;;;;;10.43;6.40;;;;;;;;;;5117759;28;20031;-65
2021/11/12 01:31:07;;;;;;;9.10;5.35;;;;;;;;;;5099667;28;20069;-65
2021/11/12 01:33:34;;;;;;;11.40;5.90;;;;;;;;;;5116542;28;20027;-65
2021/11/12 01:36:29;;;;;;;12.27;6.40;;;;;;;;;;5116558;28;20189;-65
2021/11/12 01:38:51;;;;;;;12.55;6.10;;;;;;;;;;5115564;28;20050;-63
2021/11/12 01:41:21;;;;;;;8.77;5.60;;;;;;;;;;5117911;27;20069;-64
2021/11/12 01:43:49;;;;;;;10.48;5.78;;;;;;;;;;5110120;28;20027;-64
2021/11/12 01:49:08;;;;;;;11.88;5.53;;;;;;;;;;5116040;28;20032;-65
2021/11/12 02:01:30;;;;;;;11.43;6.00;;;;;;;;;;5147730;27;20025;-65
2021/11/12 02:03:56;;;;;;;14.95;6.25;;;;;;;;;;5139165;27;20015;-65
2021/11/12 02:06:23;;;;;;;14.60;6.35;;;;;;;;;;5158115;27;20071;-64
2021/11/12 02:08:50;;;;;;;16.13;6.07;;;;;;;;;;5158453;27;20048;-64
2021/11/12 02:11:17;;;;;;;13.95;6.32;;;;;;;;;;5156983;27;20031;-65
2021/11/12 02:13:44;;;;;;;13.15;5.45;;;;;;;;;;5139287;27;20027;-65
2021/11/12 02:16:13;;;;;;;21.10;8.23;;;;;;;;;;5138921;27;20473;-67
2021/11/12 02:18:42;;;;;;;23.35;6.68;;;;;;;;;;5097527;28;20036;-66
2021/11/12 02:23:42;;;;;;;15.38;6.53;;;;;;;;;;5117080;28;20034;-65
2021/11/12 02:26:17;;;;;;;16.67;7.05;;;;;;;;;;5116408;28;20030;-65
2021/11/12 02:28:46;;;;;;;27.58;6.78;;;;;;;;;;5115785;28;20532;-65
2021/11/12 02:31:12;;;;;;;24.10;7.00;;;;;;;;;;5115170;28;20023;-65
2021/11/12 02:33:38;;;;;;;13.57;5.70;;;;;;;;;;5115925;28;20031;-65
2021/11/12 02:36:12;;;;;;;16.30;6.60;;;;;;;;;;5115480;28;20028;-65
2021/11/12 02:38:40;;;;;;;17.83;6.32;;;;;;;;;;5114940;28;20038;-65
2021/11/12 02:41:07;;;;;;;17.10;5.85;;;;;;;;;;5114796;27;20478;-66
2021/11/12 02:43:33;;;;;;;13.43;5.70;;;;;;;;;;5132243;27;20015;-66
2021/11/12 02:46:04;;;;;;;15.27;5.82;;;;;;;;;;5115206;28;20035;-65
2021/11/12 02:48:34;;;;;;;12.13;5.88;;;;;;;;;;5115039;28;20039;-66
2021/11/12 02:50:59;;;;;;;16.25;6.25;;;;;;;;;;5114682;28;20019;-65
2021/11/12 02:53:25;;;;;;;12.07;5.03;;;;;;;;;;5114689;28;20361;-64
2021/11/12 02:55:52;;;;;;;20.15;6.30;;;;;;;;;;5114626;28;20027;-65
2021/11/12 02:58:19;;;;;;;17.13;6.03;;;;;;;;;;5114417;28;20024;-65
2021/11/12 03:00:47;;;;;;;19.38;5.78;;;;;;;;;;5092562;27;20032;-65
2021/11/12 03:03:13;;;;;;;13.60;6.18;;;;;;;;;;5051120;28;20032;-65
2021/11/12 03:05:39;;;;;;;18.20;5.28;;;;;;;;;;5051443;28;20017;-65
2021/11/12 03:08:06;;;;;;;51.20;6.35;;;;;;;;;;5121038;27;20492;-65
2021/11/12 03:10:32;;;;;;;12.85;5.25;;;;;;;;;;5052043;28;20025;-65
2021/11/12 03:12:59;;;;;;;14.48;5.50;;;;;;;;;;5052144;28;20017;-65
2021/11/12 03:15:25;;;;;;;14.30;5.80;;;;;;;;;;5080602;27;20015;-66
2021/11/12 03:17:53;;;;;;;11.55;5.00;;;;;;;;;;5134981;27;20035;-65
2021/11/12 03:20:19;;;;;;;19.23;5.80;;;;;;;;;;5134075;27;20069;-65
2021/11/12 03:22:57;;;;;;;20.45;6.05;;;;;;;;;;5135875;27;20470;-65
2021/11/12 03:25:52;;;;;;;14.23;5.82;;;;;;;;;;5117068;27;20045;-66
2021/11/12 04:02:11;;;;;;;8.93;4.38;;;;;;;;;;5093534;28;20443;-65
2021/11/12 04:18:04;;;;;;;8.57;4.38;;;;;;;;;;5135084;27;20080;-64
2021/11/12 04:20:50;;;;;;;9.85;4.70;;;;;;;;;;5128981;27;20066;-64
2021/11/12 05:12:43;;;;;;;11.60;4.80;;;;;;;;;;5117897;28;20110;-65
2021/11/12 05:50:20;;;;;;;14.68;5.22;;;;;;;;;;5135278;27;20023;-64
2021/11/12 05:55:31;;;;;;;35.58;6.72;;;;;;;;;;5137200;27;20160;-68
2021/11/12 05:57:59;;;;;;;25.50;6.35;;;;;;;;;;5137051;27;20031;-72
2021/11/12 06:00:26;;;;;;;20.95;5.60;;;;;;;;;;5118934;27;20096;-71
2021/11/12 06:02:52;;;;;;;29.02;5.97;;;;;;;;;;5118638;27;20027;-74
2021/11/12 06:05:18;;;;;;;18.05;5.75;;;;;;;;;;5136966;27;20046;-69
2021/11/12 06:07:47;;;;;;;18.58;6.05;;;;;;;;;;5121670;27;20054;-66
2021/11/12 06:10:14;;;;;;;22.83;6.40;;;;;;;;;;5116494;28;20106;-65
2021/11/12 06:12:40;;;;;;;14.93;5.45;;;;;;;;;;5099073;28;20115;-63
2021/11/12 06:15:07;;;;;;;13.63;5.72;;;;;;;;;;5117419;28;20447;-64
2021/11/12 06:17:34;;;;;;;24.80;6.88;;;;;;;;;;5098151;28;20066;-76
2021/11/12 06:20:00;;;;;;;17.02;5.35;;;;;;;;;;5116274;28;20466;-78
2021/11/12 06:22:26;;;;;;;21.13;5.28;;;;;;;;;;5124026;27;20031;-64
2021/11/12 06:24:53;;;;;;;18.70;5.93;;;;;;;;;;5118033;27;20027;-67
2021/11/12 06:27:19;;;;;;;13.88;5.40;;;;;;;;;;5137198;27;20043;-64
2021/11/12 06:29:45;;;;;;;17.67;5.75;;;;;;;;;;5136329;27;20031;-63
2021/11/12 06:32:11;;;;;;;12.50;5.90;;;;;;;;;;5136122;27;20015;-64
2021/11/12 06:34:37;;;;;;;12.43;5.82;;;;;;;;;;5136429;27;20451;-73
2021/11/12 06:37:04;;;;;;;19.55;6.00;;;;;;;;;;5136798;27;20023;-74
2021/11/12 06:39:30;;;;;;;14.30;7.30;;;;;;;;;;5136070;27;20031;-66
2021/11/12 06:41:59;;;;;;;14.70;8.20;;;;;;;;;;5128378;27;20463;-74
2021/11/12 06:44:43;;;;;;;13.82;7.60;;;;;;;;;;5117366;27;20106;-69
2021/11/12 06:52:23;;;;;;;13.85;7.60;;;;;;;;;;5115424;28;20076;-67
2021/11/12 06:54:49;;;;;;;17.30;7.90;;;;;;;;;;5123628;27;20105;-72
2021/11/12 06:57:17;;;;;;;10.65;7.25;;;;;;;;;;5103039;28;20039;-65
2021/11/12 06:59:43;;;;;;;12.55;7.63;;;;;;;;;;5097170;28;20475;-65
2021/11/12 07:02:10;;;;;;;12.32;7.40;;;;;;;;;;5117111;27;20110;-68
2021/11/12 07:04:37;;;;;;;16.13;8.18;;;;;;;;;;5116982;27;20028;-71
2021/11/12 07:07:03;;;;;;;12.35;7.50;;;;;;;;;;5117175;27;20035;-71
2021/11/12 07:09:29;;;;;;;19.38;7.80;;;;;;;;;;5115018;28;20020;-71
2021/11/12 07:11:55;;;;;;;12.20;7.43;;;;;;;;;;5116025;27;20523;-66
2021/11/12 07:14:21;;;;;;;10.93;6.97;;;;;;;;;;5135721;27;20027;-65
2021/11/12 07:16:47;;;;;;;10.98;7.35;;;;;;;;;;5116846;27;20023;-70
2021/11/12 07:19:13;;;;;;;11.90;7.25;;;;;;;;;;5134880;27;20110;-68
2021/11/12 07:21:40;;;;;;;12.18;7.05;;;;;;;;;;5135445;27;20455;-71
2021/11/12 07:24:06;;;;;;;13.40;7.15;;;;;;;;;;5135009;27;20031;-69
2021/11/12 07:26:32;;;;;;;14.77;7.32;;;;;;;;;;5135400;27;20023;-72
2021/11/12 07:28:59;;;;;;;17.73;7.00;;;;;;;;;;5118466;27;20062;-66
2021/11/12 07:31:25;;;;;;;10.82;6.70;;;;;;;;;;5114686;28;20110;-69
2021/11/12 07:33:52;;;;;;;11.32;6.72;;;;;;;;;;5115149;28;20019;-73
2021/11/12 07:36:21;;;;;;;9.60;6.57;;;;;;;;;;5114894;28;20023;-68
2021/11/12 07:48:57;;;;;;;11.18;7.00;;;;;;;;;;5135459;27;20030;-72
2021/11/12 07:51:23;;;;;;;10.18;6.75;;;;;;;;;;5135480;28;20026;-72
2021/11/12 07:53:50;;;;;;;12.52;6.72;;;;;;;;;;5134015;27;20143;-67
2021/11/12 07:56:16;;;;;;;10.60;6.78;;;;;;;;;;5115938;28;20011;-70
2021/11/12 07:58:42;;;;;;;12.38;7.25;;;;;;;;;;5116311;28;20479;-72
2021/11/12 08:01:08;;;;;;;12.55;7.25;;;;;;;;;;5080649;28;20501;-73
2021/11/12 08:03:34;;;;;;;11.63;7.25;;;;;;;;;;5050695;28;20040;-74
2021/11/12 08:06:03;;;;;;;10.65;7.03;;;;;;;;;;5051093;28;20017;-70
2021/11/12 08:08:33;;;;;;;13.38;7.88;;;;;;;;;;5051143;28;20032;-70
2021/11/12 08:11:25;;;;;;;11.32;7.70;;;;;;;;;;5050982;28;20115;-70
2021/11/12 08:13:51;;;;;;;13.20;8.50;;;;;;;;;;5050403;28;20044;-72
2021/11/12 08:16:38;;;;;;;14.05;8.73;;;;;;;;;;5065254;28;20153;-73
2021/11/12 08:19:09;;;;;;;12.73;8.13;;;;;;;;;;5114121;28;20060;-73
2021/11/12 08:21:53;;;;;;;11.95;8.25;;;;;;;;;;5113984;28;20042;-67
2021/11/12 08:24:41;;;;;;;14.90;8.93;;;;;;;;;;5113934;28;20031;-71
2021/11/12 08:35:11;;;;;;;11.85;8.52;;;;;;;;;;5114312;28;20489;-71
2021/11/12 08:40:52;;;;;;;19.50;9.98;;;;;;;;;;5114354;28;20035;-68
2021/11/12 08:45:38;;;;;;;21.63;11.20;;;;;;;;;;5114137;28;20055;-77
2021/11/12 08:48:08;;;;;;;76.18;13.65;;;;;;;;;;5115014;28;20031;-76
2021/11/12 08:50:36;;;;;;;39.83;12.02;;;;;;;;;;5115430;28;20028;-71
2021/11/12 08:53:05;;;;;;;44.72;12.57;;;;;;;;;;5115753;28;20027;-77
2021/11/12 08:55:32;;;;;;;49.58;12.80;;;;;;;;;;5115003;28;20027;-78
2021/11/12 08:57:58;;;;;;;33.88;11.57;;;;;;;;;;5115737;28;20028;-74
2021/11/12 09:00:25;;;;;;;33.25;11.18;;;;;;;;;;5097798;28;20537;-78
2021/11/12 09:02:51;;;;;;;42.22;12.98;;;;;;;;;;5116405;28;20043;-79
2021/11/12 09:05:20;;;;;;;29.33;12.75;;;;;;;;;;5119193;28;20042;-67
2021/11/12 09:07:47;;;;;;;37.28;12.25;;;;;;;;;;5118814;28;20421;-72
2021/11/12 09:10:14;;;;;;;33.53;13.20;;;;;;;;;;5119361;28;20084;-76
2021/11/12 09:12:42;;;;;;;35.88;12.50;;;;;;;;;;5119556;28;20110;-70
2021/11/12 09:15:20;;;;;;;34.05;12.75;;;;;;;;;;5119014;28;20442;-78
2021/11/12 09:17:47;;;;;;;27.17;12.80;;;;;;;;;;5118777;28;20418;-74
2021/11/12 09:20:13;;;;;;;28.33;14.13;;;;;;;;;;5100868;28;20047;-78
2021/11/12 09:22:39;;;;;;;28.25;13.68;;;;;;;;;;5119528;27;20069;-67
2021/11/12 09:25:06;;;;;;;26.73;12.07;;;;;;;;;;5139816;27;20027;-77
2021/11/12 09:27:32;;;;;;;27.80;13.15;;;;;;;;;;5121260;27;20023;-73
2021/11/12 09:29:58;;;;;;;21.95;12.45;;;;;;;;;;5139940;27;20019;-74
2021/11/12 09:32:24;;;;;;;22.98;12.73;;;;;;;;;;5138402;27;20099;-76
2021/11/12 09:34:50;;;;;;;23.58;12.20;;;;;;;;;;5138973;27;20052;-71
2021/11/12 09:37:22;;;;;;;23.27;12.80;;;;;;;;;;5138448;27;20027;-72
2021/11/12 09:39:57;;;;;;;25.17;13.20;;;;;;;;;;5137291;27;20443;-77
2021/11/12 09:42:25;;;;;;;22.38;12.85;;;;;;;;;;5138196;27;20098;-78
2021/11/12 09:44:52;;;;;;;25.73;14.48;;;;;;;;;;5138420;27;20027;-77
2021/11/12 09:47:25;;;;;;;30.90;14.73;;;;;;;;;;5138291;27;20080;-77
2021/11/12 09:49:55;;;;;;;27.85;14.73;;;;;;;;;;5138253;27;20015;-71
2021/11/12 09:52:23;;;;;;;24.67;13.35;;;;;;;;;;5102729;28;20100;-77
2021/11/12 09:54:51;;;;;;;27.02;14.15;;;;;;;;;;5131184;27;20058;-72
2021/11/12 09:57:17;;;;;;;25.75;14.55;;;;;;;;;;5136673;27;20027;-73
2021/11/12 09:59:50;;;;;;;28.05;14.32;;;;;;;;;;5137721;27;20027;-73
2021/11/12 10:02:16;;;;;;;26.10;13.73;;;;;;;;;;5138206;27;20019;-74
2021/11/12 10:04:43;;;;;;;27.10;14.27;;;;;;;;;;5137239;27;20473;-73
2021/11/12 10:07:11;;;;;;;30.67;16.23;;;;;;;;;;5137077;27;20019;-68
2021/11/12 10:09:37;;;;;;;29.50;14.82;;;;;;;;;;5119189;27;20019;-70
2021/11/12 10:12:06;;;;;;;40.17;14.82;;;;;;;;;;5136810;27;20015;-72
2021/11/12 10:14:41;;;;;;;72.28;16.85;;;;;;;;;;5138941;27;20038;-76
2021/11/12 10:17:08;;;;;;;38.35;15.02;;;;;;;;;;5136630;27;20490;-65
2021/11/12 10:19:47;;;;;;;39.63;16.17;;;;;;;;;;5135686;27;20405;-67
2021/11/12 10:22:14;;;;;;;31.38;16.50;;;;;;;;;;5136492;27;20019;-69
2021/11/12 10:24:41;;;;;;;32.38;19.02;;;;;;;;;;5125518;27;20052;-65
2021/11/12 10:27:12;;;;;;;45.60;18.90;;;;;;;;;;5115891;28;20135;-65
2021/11/12 10:29:48;;;;;;;44.78;20.80;;;;;;;;;;5115865;28;20023;-67
2021/11/12 10:32:18;;;;;;;37.22;20.67;;;;;;;;;;5115842;28;20340;-67
2021/11/12 10:34:45;;;;;;;34.97;20.55;;;;;;;;;;5115240;28;20367;-65
2021/11/12 10:37:13;;;;;;;37.58;20.70;;;;;;;;;;5115254;28;20020;-65
2021/11/12 10:39:43;;;;;;;41.60;22.70;;;;;;;;;;5097018;28;20398;-67
2021/11/12 10:42:09;;;;;;;39.35;23.20;;;;;;;;;;5124724;27;20077;-68
2021/11/12 10:44:39;;;;;;;43.25;23.65;;;;;;;;;;5135867;27;20035;-68
2021/11/12 10:47:07;;;;;;;38.05;21.77;;;;;;;;;;5136123;27;20113;-67
2021/11/12 10:49:33;;;;;;;44.40;23.10;;;;;;;;;;5135854;27;20045;-66
2021/11/12 10:52:01;;;;;;;39.45;22.92;;;;;;;;;;5136385;27;20027;-66
2021/11/12 10:54:28;;;;;;;37.65;23.55;;;;;;;;;;5136228;27;20083;-68
2021/11/12 10:56:54;;;;;;;39.42;23.80;;;;;;;;;;5134506;27;20028;-69
2021/11/12 10:59:20;;;;;;;36.80;22.23;;;;;;;;;;5135356;27;20035;-67
2021/11/12 11:01:48;;;;;;;42.47;22.58;;;;;;;;;;5136113;27;20080;-70
2021/11/12 11:04:18;;;;;;;34.92;21.45;;;;;;;;;;5135648;27;20094;-64
2021/11/12 11:06:44;;;;;;;40.75;23.23;;;;;;;;;;5135924;27;20041;-66
2021/11/12 11:09:10;;;;;;;36.97;21.90;;;;;;;;;;5136021;27;20069;-67
2021/11/12 11:11:38;;;;;;;43.08;22.30;;;;;;;;;;5135492;27;20358;-64
2021/11/12 11:14:05;;;;;;;38.55;22.33;;;;;;;;;;5117202;27;20030;-66
2021/11/12 11:16:35;;;;;;;33.85;21.35;;;;;;;;;;5135280;27;20076;-68
2021/11/12 11:19:01;;;;;;;37.58;20.42;;;;;;;;;;5135226;27;20428;-66
2021/11/12 11:21:29;;;;;;;35.83;20.65;;;;;;;;;;5134923;27;20110;-69
2021/11/12 11:24:06;;;;;;;32.92;20.95;;;;;;;;;;5130429;27;20029;-70
2021/11/12 11:26:46;;;;;;;34.17;20.95;;;;;;;;;;5075060;28;20039;-68
2021/11/12 11:29:17;;;;;;;35.38;20.90;;;;;;;;;;5075326;28;20024;-69
2021/11/12 11:31:43;;;;;;;36.22;20.88;;;;;;;;;;5094070;28;20063;-66
2021/11/12 11:34:10;;;;;;;32.80;19.92;;;;;;;;;;5093880;28;20020;-67
2021/11/12 11:36:37;;;;;;;35.67;20.73;;;;;;;;;;5094360;28;20340;-68
2021/11/12 11:39:08;;;;;;;36.92;20.23;;;;;;;;;;5094277;28;20043;-67
2021/11/12 11:41:34;;;;;;;32.28;19.02;;;;;;;;;;5083537;28;20020;-67
2021/11/12 11:44:00;;;;;;;34.63;20.27;;;;;;;;;;5122849;27;20028;-65
2021/11/12 11:46:31;;;;;;;33.88;20.60;;;;;;;;;;5120255;27;20031;-69
2021/11/12 11:48:58;;;;;;;29.75;19.33;;;;;;;;;;5125006;27;20098;-67
2021/11/12 11:51:38;;;;;;;29.23;19.00;;;;;;;;;;5121501;28;20073;-66
2021/11/12 11:54:06;;;;;;;32.15;18.83;;;;;;;;;;5122625;28;20498;-68
2021/11/12 11:56:35;;;;;;;33.33;19.55;;;;;;;;;;5127274;28;20015;-64
2021/11/12 11:59:03;;;;;;;33.00;19.08;;;;;;;;;;5122870;28;20031;-68
2021/11/12 12:01:30;;;;;;;30.38;19.25;;;;;;;;;;5116713;28;20016;-65
2021/11/12 12:04:15;;;;;;;29.00;18.77;;;;;;;;;;5120329;28;20081;-67
2021/11/12 12:07:05;;;;;;;30.42;18.85;;;;;;;;;;5116612;28;20031;-67
2021/11/12 12:09:46;;;;;;;30.73;18.65;;;;;;;;;;5113665;28;20034;-69
2021/11/12 12:12:13;;;;;;;31.30;18.80;;;;;;;;;;5114264;28;20459;-69
2021/11/12 12:14:39;;;;;;;30.48;18.45;;;;;;;;;;5109473;28;20032;-67
2021/11/12 12:17:15;;;;;;;27.08;17.48;;;;;;;;;;5091733;28;20024;-68
2021/11/12 12:19:44;;;;;;;27.05;16.50;;;;;;;;;;5099318;28;20071;-69
2021/11/12 12:30:50;;;;;;;25.85;17.17;;;;;;;;;;5113080;28;20524;-69
2021/11/12 13:21:54;;;;;;;25.42;15.25;;;;;;;;;;5137361;27;20034;-65
2021/11/12 13:24:38;;;;;;;25.15;14.27;;;;;;;;;;5137778;27;20362;-66
2021/11/12 13:27:05;;;;;;;20.75;14.00;;;;;;;;;;5136198;27;20024;-69
2021/11/12 13:29:33;;;;;;;23.10;14.45;;;;;;;;;;5137373;27;20026;-64
2021/11/12 13:32:03;;;;;;;24.30;14.10;;;;;;;;;;5136177;27;20023;-65
2021/11/12 13:34:30;;;;;;;21.55;13.73;;;;;;;;;;5137434;27;20042;-65
2021/11/12 13:36:56;;;;;;;20.85;13.10;;;;;;;;;;5136875;27;20027;-64
2021/11/12 13:39:23;;;;;;;21.10;13.98;;;;;;;;;;5136830;27;20087;-65
2021/11/12 13:41:49;;;;;;;19.75;13.35;;;;;;;;;;5137093;27;20114;-64
2021/11/12 13:44:19;;;;;;;18.98;12.90;;;;;;;;;;5136202;27;20076;-64
2021/11/12 13:46:48;;;;;;;20.13;13.02;;;;;;;;;;5136986;27;20026;-67
2021/11/12 13:49:34;;;;;;;17.58;11.98;;;;;;;;;;5137296;27;20061;-71
2021/11/12 13:52:03;;;;;;;21.48;12.68;;;;;;;;;;5136464;27;20027;-64
2021/11/12 13:54:29;;;;;;;18.52;11.73;;;;;;;;;;5118607;27;20107;-65
2021/11/12 13:56:55;;;;;;;20.70;11.85;;;;;;;;;;5136646;27;20025;-68
2021/11/12 13:59:22;;;;;;;17.73;11.55;;;;;;;;;;5136783;27;20031;-74
2021/11/12 14:02:00;;;;;;;47.83;11.15;;;;;;;;;;5059982;27;20025;-62
2021/11/12 14:04:28;;;;;;;77.75;15.02;;;;;;;;;;5051500;28;20025;-67
2021/11/12 14:06:55;;;;;;;117.47;14.80;;;;;;;;;;5051899;28;20043;-64
2021/11/12 14:09:22;;;;;;;145.75;17.20;;;;;;;;;;5052353;28;20024;-66
2021/11/12 14:12:03;;;;;;;114.57;15.23;;;;;;;;;;5121565;27;20472;-71
2021/11/12 14:14:30;;;;;;;118.22;15.45;;;;;;;;;;5121026;27;20422;-68
2021/11/12 14:16:59;;;;;;;71.13;13.30;;;;;;;;;;5132747;27;20055;-69
2021/11/12 14:22:32;;;;;;;83.85;12.93;;;;;;;;;;5136119;27;20054;-70
2021/11/12 14:25:15;;;;;;;40.03;11.05;;;;;;;;;;5117021;27;20171;-69
2021/11/12 14:27:54;;;;;;;32.97;10.85;;;;;;;;;;5135374;27;20019;-68
2021/11/12 14:33:23;;;;;;;38.42;10.32;;;;;;;;;;5097437;27;20058;-74
2021/11/12 14:36:01;;;;;;;32.78;11.00;;;;;;;;;;5105709;27;20024;-71
2021/11/12 14:38:34;;;;;;;21.63;10.13;;;;;;;;;;5096730;28;20046;-73
2021/11/12 14:51:45;;;;;;;21.55;9.07;;;;;;;;;;5104983;28;20029;-73
2021/11/12 14:54:13;;;;;;;19.90;9.77;;;;;;;;;;5123230;27;20071;-72
2021/11/12 14:56:44;;;;;;;19.83;9.35;;;;;;;;;;5136201;27;20027;-72
2021/11/12 14:59:16;;;;;;;18.45;9.18;;;;;;;;;;5135800;27;20039;-73
2021/11/12 15:01:42;;;;;;;22.25;9.30;;;;;;;;;;5135431;27;20034;-74
2021/11/12 15:04:08;;;;;;;18.98;9.02;;;;;;;;;;5134961;27;20022;-68
2021/11/12 15:06:35;;;;;;;20.90;9.50;;;;;;;;;;5135640;27;20023;-68
2021/11/12 15:11:30;;;;;;;22.08;9.07;;;;;;;;;;5134981;27;20035;-68
2021/11/12 15:14:12;;;;;;;17.75;8.50;;;;;;;;;;5134884;27;20024;-69
2021/11/12 15:16:40;;;;;;;13.88;8.68;;;;;;;;;;5135073;27;20019;-72
2021/11/12 15:19:12;;;;;;;16.77;8.23;;;;;;;;;;5134711;27;20032;-69
2021/11/12 15:24:14;;;;;;;16.92;7.35;;;;;;;;;;5134938;27;20031;-67
2021/11/12 15:27:07;;;;;;;19.50;7.60;;;;;;;;;;5135326;27;20552;-68
2021/11/12 15:29:43;;;;;;;17.77;8.38;;;;;;;;;;5135134;27;20102;-67
2021/11/12 15:32:17;;;;;;;16.15;8.27;;;;;;;;;;5135558;27;20031;-70
2021/11/12 15:34:53;;;;;;;17.55;8.23;;;;;;;;;;5134861;27;20347;-67
2021/11/12 15:39:55;;;;;;;14.18;8.38;;;;;;;;;;5135039;27;20031;-72
2021/11/12 15:44:56;;;;;;;18.05;7.43;;;;;;;;;;5135073;27;20023;-68
2021/11/12 15:49:49;;;;;;;15.20;7.68;;;;;;;;;;5134412;27;20020;-69
2021/11/12 15:52:24;;;;;;;14.38;7.32;;;;;;;;;;5134320;28;20110;-71
2021/11/12 16:03:48;;;;;;;15.82;7.40;;;;;;;;;;5116214;28;20039;-69
2021/11/12 16:05:51;;;;;;;13.00;7.47;;;;;;;;;;5124954;28;20114;-73
2021/11/12 16:08:35;;;;;;;12.85;7.50;;;;;;;;;;5134475;28;20054;-73
2021/11/12 16:18:48;;;;;;;11.18;6.35;;;;;;;;;;5120288;27;20041;-69
2021/11/12 16:26:32;;;;;;;13.98;6.60;;;;;;;;;;5138303;27;20031;-67
2021/11/12 16:29:16;;;;;;;10.20;6.10;;;;;;;;;;5137811;27;20035;-67
2021/11/12 16:31:43;;;;;;;13.48;6.43;;;;;;;;;;5110077;28;20513;-70
2021/11/12 16:34:15;;;;;;;9.93;5.88;;;;;;;;;;5117353;28;20031;-70
2021/11/12 16:36:45;;;;;;;9.27;5.53;;;;;;;;;;5099018;28;20473;-71
2021/11/12 16:39:13;;;;;;;9.88;5.90;;;;;;;;;;5117600;28;20036;-73
2021/11/12 16:41:50;;;;;;;8.02;6.05;;;;;;;;;;5098600;28;20027;-69
2021/11/12 16:44:42;;;;;;;10.63;5.35;;;;;;;;;;5099100;28;20025;-69
2021/11/12 17:11:01;;;;;;;12.05;5.70;;;;;;;;;;5116538;28;20027;-67
2021/11/12 17:16:31;;;;;;;9.25;5.40;;;;;;;;;;5116654;28;20212;-67
2021/11/12 17:46:31;;;;;;;8.10;5.40;;;;;;;;;;5115779;28;20149;-67
2021/11/12 18:02:27;;;;;;;8.43;5.60;;;;;;;;;;5115111;28;20066;-67
2021/11/12 18:15:32;;;;;;;8.38;5.60;;;;;;;;;;5114944;28;20096;-73
2021/11/12 18:18:37;;;;;;;8.70;5.45;;;;;;;;;;5114408;28;20081;-68
2021/11/12 21:46:30;;;;;;;14.80;8.40;;;;;;;;;;5116632;28;20034;-67
2021/11/12 21:48:33;;;;;;;15.45;9.00;;;;;;;;;;5105348;28;20039;-67
2021/11/12 21:51:00;;;;;;;15.10;7.95;;;;;;;;;;5097744;28;20386;-67
2021/11/12 21:53:27;;;;;;;12.82;7.45;;;;;;;;;;5116523;28;20020;-69
2021/11/12 21:55:54;;;;;;;15.63;7.95;;;;;;;;;;5116297;28;20051;-67
2021/11/12 21:58:20;;;;;;;13.93;8.43;;;;;;;;;;5115627;28;20036;-69
2021/11/12 22:00:47;;;;;;;13.18;7.50;;;;;;;;;;5115467;28;20435;-66
2021/11/12 22:03:14;;;;;;;11.38;7.45;;;;;;;;;;5096919;28;20024;-66
2021/11/12 22:05:40;;;;;;;13.90;7.63;;;;;;;;;;5115626;28;20024;-64
2021/11/12 22:08:06;;;;;;;20.23;7.97;;;;;;;;;;5115802;28;20049;-66
2021/11/12 22:10:32;;;;;;;15.57;8.43;;;;;;;;;;5115895;28;20015;-67
2021/11/12 22:12:58;;;;;;;15.07;7.80;;;;;;;;;;5114825;28;20111;-67
2021/11/12 22:15:24;;;;;;;14.50;8.65;;;;;;;;;;5115474;28;20536;-69
2021/11/12 22:17:50;;;;;;;15.63;8.00;;;;;;;;;;5115333;28;20031;-67
2021/11/12 22:20:18;;;;;;;14.88;8.52;;;;;;;;;;5126038;27;20062;-67
2021/11/12 22:22:44;;;;;;;12.77;7.90;;;;;;;;;;5136246;27;20416;-66
2021/11/12 22:25:11;;;;;;;13.98;8.27;;;;;;;;;;5117953;27;20407;-67
2021/11/12 22:27:37;;;;;;;15.60;8.52;;;;;;;;;;5136297;27;20370;-66
2021/11/12 22:30:05;;;;;;;14.43;8.55;;;;;;;;;;5135536;27;20386;-66
2021/11/12 22:32:31;;;;;;;14.68;8.35;;;;;;;;;;5135930;27;20023;-69
2021/11/12 22:34:57;;;;;;;15.68;8.77;;;;;;;;;;5135990;27;20023;-67
2021/11/12 22:37:23;;;;;;;15.43;8.60;;;;;;;;;;5135556;27;20031;-71
2021/11/12 22:39:48;;;;;;;17.10;8.75;;;;;;;;;;5135967;27;20474;-69
2021/11/12 22:42:15;;;;;;;14.70;7.88;;;;;;;;;;5136107;27;20026;-69
2021/11/12 22:44:42;;;;;;;14.25;8.32;;;;;;;;;;5136072;27;20023;-69
2021/11/12 22:47:08;;;;;;;15.90;8.15;;;;;;;;;;5135188;27;20482;-68
2021/11/12 22:49:34;;;;;;;14.73;8.52;;;;;;;;;;5135945;27;20037;-66
2021/11/12 22:52:00;;;;;;;16.30;9.07;;;;;;;;;;5135534;27;20484;-70
2021/11/12 22:54:26;;;;;;;16.10;8.65;;;;;;;;;;5117360;27;20058;-66
2021/11/12 22:56:52;;;;;;;13.70;8.70;;;;;;;;;;5135272;27;20478;-71
2021/11/12 22:59:18;;;;;;;16.90;8.75;;;;;;;;;;5135474;27;20035;-66
2021/11/12 23:01:44;;;;;;;15.57;8.85;;;;;;;;;;5135498;27;20023;-71
2021/11/12 23:04:11;;;;;;;13.55;8.43;;;;;;;;;;5135391;27;20075;-73
2021/11/12 23:06:38;;;;;;;19.02;8.93;;;;;;;;;;5135511;27;20021;-66
2021/11/12 23:09:04;;;;;;;14.70;8.40;;;;;;;;;;5116959;27;20015;-72
2021/11/12 23:11:30;;;;;;;13.13;7.95;;;;;;;;;;5135075;27;20779;-71
2021/11/12 23:13:56;;;;;;;14.70;8.45;;;;;;;;;;5134901;27;20023;-65
2021/11/12 23:16:22;;;;;;;13.82;8.95;;;;;;;;;;5135090;27;20027;-65
2021/11/12 23:18:49;;;;;;;13.48;8.13;;;;;;;;;;5134845;27;20039;-70
2021/11/12 23:21:15;;;;;;;14.60;8.77;;;;;;;;;;5134810;27;20043;-66
2021/11/12 23:23:44;;;;;;;17.55;8.75;;;;;;;;;;5116763;27;20019;-70
2021/11/12 23:26:10;;;;;;;13.52;8.57;;;;;;;;;;5135061;27;20023;-70
2021/11/12 23:28:36;;;;;;;13.20;7.50;;;;;;;;;;5134854;27;20023;-73
2021/11/12 23:31:02;;;;;;;15.13;8.82;;;;;;;;;;5130871;27;20027;-70
2021/11/12 23:33:28;;;;;;;15.25;8.73;;;;;;;;;;5113834;28;20035;-65
2021/11/12 23:35:54;;;;;;;14.70;8.45;;;;;;;;;;5114463;28;20095;-68
2021/11/12 23:38:20;;;;;;;16.38;8.70;;;;;;;;;;5095614;28;20081;-66
2021/11/12 23:40:46;;;;;;;15.75;8.80;;;;;;;;;;5096028;28;20065;-69
2021/11/12 23:43:12;;;;;;;14.50;8.23;;;;;;;;;;5114194;28;20084;-69
2021/11/12 23:45:38;;;;;;;15.95;8.52;;;;;;;;;;5114237;28;20062;-71
2021/11/12 23:48:04;;;;;;;13.98;8.00;;;;;;;;;;5114339;28;20027;-72
2021/11/12 23:50:30;;;;;;;19.70;8.52;;;;;;;;;;5114097;28;20024;-70
2021/11/12 23:52:56;;;;;;;14.48;8.35;;;;;;;;;;5113941;28;20463;-66
2021/11/12 23:55:22;;;;;;;14.45;8.57;;;;;;;;;;5114218;28;20020;-66
2021/11/12 23:57:48;;;;;;;14.27;9.10;;;;;;;;;;5113870;28;20043;-70
